sensor_id;sensor_type;location;lat;lon;timestamp;P1;durP1;ratioP1;P2;durP2;ratioP2
19758;SDS011;10038;42.662;23.278;2023-05-19T00:00:54;5.60;;;4.97;;
19758;SDS011;10038;42.662;23.278;2023-05-19T00:03:21;7.00;;;4.90;;
19758;SDS011;10038;42.662;23.278;2023-05-19T00:05:50;8.63;;;5.50;;
19758;SDS011;10038;42.662;23.278;2023-05-19T00:08:20;9.00;;;5.17;;
19758;SDS011;10038;42.662;23.278;2023-05-19T00:10:48;5.67;;;5.00;;
19758;SDS011;10038;42.662;23.278;2023-05-19T00:13:16;5.87;;;4.87;;
19758;SDS011;10038;42.662;23.278;2023-05-19T00:15:43;6.07;;;4.87;;
19758;SDS011;10038;42.662;23.278;2023-05-19T00:18:10;8.23;;;4.90;;
19758;SDS011;10038;42.662;23.278;2023-05-19T00:20:38;7.03;;;5.53;;
19758;SDS011;10038;42.662;23.278;2023-05-19T00:23:05;7.37;;;5.77;;
19758;SDS011;10038;42.662;23.278;2023-05-19T00:25:33;6.03;;;5.00;;
19758;SDS011;10038;42.662;23.278;2023-05-19T00:28:00;6.70;;;5.20;;
19758;SDS011;10038;42.662;23.278;2023-05-19T00:30:27;5.23;;;4.73;;
19758;SDS011;10038;42.662;23.278;2023-05-19T00:32:54;7.87;;;5.67;;
19758;SDS011;10038;42.662;23.278;2023-05-19T00:35:21;7.30;;;5.73;;
19758;SDS011;10038;42.662;23.278;2023-05-19T00:37:49;5.90;;;4.93;;
19758;SDS011;10038;42.662;23.278;2023-05-19T00:40:16;8.80;;;5.40;;
19758;SDS011;10038;42.662;23.278;2023-05-19T00:42:44;6.70;;;4.60;;
19758;SDS011;10038;42.662;23.278;2023-05-19T00:45:11;6.07;;;5.47;;
19758;SDS011;10038;42.662;23.278;2023-05-19T00:47:38;7.90;;;5.07;;
19758;SDS011;10038;42.662;23.278;2023-05-19T00:50:05;9.97;;;4.87;;
19758;SDS011;10038;42.662;23.278;2023-05-19T00:52:32;5.90;;;5.30;;
19758;SDS011;10038;42.662;23.278;2023-05-19T00:54:59;6.80;;;5.50;;
19758;SDS011;10038;42.662;23.278;2023-05-19T00:57:26;6.70;;;4.97;;
19758;SDS011;10038;42.662;23.278;2023-05-19T00:59:55;6.50;;;5.10;;
19758;SDS011;10038;42.662;23.278;2023-05-19T01:02:22;7.67;;;5.67;;
19758;SDS011;10038;42.662;23.278;2023-05-19T01:04:49;6.27;;;5.20;;
19758;SDS011;10038;42.662;23.278;2023-05-19T01:07:17;6.57;;;5.53;;
19758;SDS011;10038;42.662;23.278;2023-05-19T01:09:45;7.43;;;5.40;;
19758;SDS011;10038;42.662;23.278;2023-05-19T01:12:12;8.13;;;5.83;;
19758;SDS011;10038;42.662;23.278;2023-05-19T01:14:39;5.83;;;5.10;;
19758;SDS011;10038;42.662;23.278;2023-05-19T01:17:12;6.40;;;5.30;;
19758;SDS011;10038;42.662;23.278;2023-05-19T01:19:55;5.40;;;4.63;;
19758;SDS011;10038;42.662;23.278;2023-05-19T01:22:34;6.40;;;4.47;;
19758;SDS011;10038;42.662;23.278;2023-05-19T01:25:35;8.80;;;4.80;;
19758;SDS011;10038;42.662;23.278;2023-05-19T01:31:06;6.47;;;5.60;;
19758;SDS011;10038;42.662;23.278;2023-05-19T01:33:36;7.53;;;6.07;;
19758;SDS011;10038;42.662;23.278;2023-05-19T01:36:04;7.43;;;5.17;;
19758;SDS011;10038;42.662;23.278;2023-05-19T01:38:33;9.70;;;6.67;;
19758;SDS011;10038;42.662;23.278;2023-05-19T01:41:03;8.37;;;6.10;;
19758;SDS011;10038;42.662;23.278;2023-05-19T01:43:31;7.10;;;5.80;;
19758;SDS011;10038;42.662;23.278;2023-05-19T01:45:59;9.83;;;5.67;;
19758;SDS011;10038;42.662;23.278;2023-05-19T01:48:29;8.70;;;6.80;;
19758;SDS011;10038;42.662;23.278;2023-05-19T01:50:56;7.33;;;6.03;;
19758;SDS011;10038;42.662;23.278;2023-05-19T01:53:23;7.17;;;5.50;;
19758;SDS011;10038;42.662;23.278;2023-05-19T01:55:52;10.10;;;5.70;;
19758;SDS011;10038;42.662;23.278;2023-05-19T01:58:22;8.40;;;5.50;;
19758;SDS011;10038;42.662;23.278;2023-05-19T02:01:02;8.67;;;6.50;;
19758;SDS011;10038;42.662;23.278;2023-05-19T02:03:41;7.33;;;6.20;;
19758;SDS011;10038;42.662;23.278;2023-05-19T02:06:17;8.90;;;6.60;;
19758;SDS011;10038;42.662;23.278;2023-05-19T02:08:57;9.27;;;6.53;;
19758;SDS011;10038;42.662;23.278;2023-05-19T02:11:30;8.90;;;5.80;;
19758;SDS011;10038;42.662;23.278;2023-05-19T02:14:03;8.90;;;6.43;;
19758;SDS011;10038;42.662;23.278;2023-05-19T02:16:33;11.03;;;7.50;;
19758;SDS011;10038;42.662;23.278;2023-05-19T02:19:03;10.90;;;6.83;;
19758;SDS011;10038;42.662;23.278;2023-05-19T02:21:30;8.90;;;7.27;;
19758;SDS011;10038;42.662;23.278;2023-05-19T02:23:57;10.60;;;7.40;;
19758;SDS011;10038;42.662;23.278;2023-05-19T02:26:24;12.00;;;7.17;;
19758;SDS011;10038;42.662;23.278;2023-05-19T02:28:51;10.00;;;8.13;;
19758;SDS011;10038;42.662;23.278;2023-05-19T02:31:18;9.23;;;7.00;;
19758;SDS011;10038;42.662;23.278;2023-05-19T02:33:44;8.33;;;6.90;;
19758;SDS011;10038;42.662;23.278;2023-05-19T02:36:13;10.10;;;7.27;;
19758;SDS011;10038;42.662;23.278;2023-05-19T02:38:40;10.17;;;7.60;;
19758;SDS011;10038;42.662;23.278;2023-05-19T02:41:06;9.53;;;6.77;;
19758;SDS011;10038;42.662;23.278;2023-05-19T02:43:33;11.00;;;7.00;;
19758;SDS011;10038;42.662;23.278;2023-05-19T02:46:00;11.90;;;8.57;;
19758;SDS011;10038;42.662;23.278;2023-05-19T02:48:27;10.87;;;7.90;;
19758;SDS011;10038;42.662;23.278;2023-05-19T02:50:54;14.57;;;8.67;;
19758;SDS011;10038;42.662;23.278;2023-05-19T02:53:22;12.37;;;7.40;;
19758;SDS011;10038;42.662;23.278;2023-05-19T02:55:49;10.60;;;8.10;;
19758;SDS011;10038;42.662;23.278;2023-05-19T02:58:16;10.03;;;8.17;;
19758;SDS011;10038;42.662;23.278;2023-05-19T03:00:44;16.17;;;9.47;;
19758;SDS011;10038;42.662;23.278;2023-05-19T03:03:12;14.73;;;8.93;;
19758;SDS011;10038;42.662;23.278;2023-05-19T03:05:38;13.13;;;9.40;;
19758;SDS011;10038;42.662;23.278;2023-05-19T03:08:06;12.37;;;9.27;;
19758;SDS011;10038;42.662;23.278;2023-05-19T03:10:34;13.90;;;10.40;;
19758;SDS011;10038;42.662;23.278;2023-05-19T03:13:01;26.13;;;9.03;;
19758;SDS011;10038;42.662;23.278;2023-05-19T03:15:28;14.30;;;8.87;;
19758;SDS011;10038;42.662;23.278;2023-05-19T03:17:55;11.90;;;8.50;;
19758;SDS011;10038;42.662;23.278;2023-05-19T03:20:22;13.03;;;9.03;;
19758;SDS011;10038;42.662;23.278;2023-05-19T03:22:49;13.90;;;8.97;;
19758;SDS011;10038;42.662;23.278;2023-05-19T03:25:16;12.70;;;9.43;;
19758;SDS011;10038;42.662;23.278;2023-05-19T03:27:44;14.97;;;9.37;;
19758;SDS011;10038;42.662;23.278;2023-05-19T03:30:11;12.70;;;9.67;;
19758;SDS011;10038;42.662;23.278;2023-05-19T03:32:39;14.97;;;9.13;;
19758;SDS011;10038;42.662;23.278;2023-05-19T03:35:06;13.63;;;9.70;;
19758;SDS011;10038;42.662;23.278;2023-05-19T03:37:34;15.90;;;10.93;;
19758;SDS011;10038;42.662;23.278;2023-05-19T03:40:00;14.73;;;10.63;;
19758;SDS011;10038;42.662;23.278;2023-05-19T03:42:29;17.00;;;11.30;;
19758;SDS011;10038;42.662;23.278;2023-05-19T03:44:57;16.17;;;11.13;;
19758;SDS011;10038;42.662;23.278;2023-05-19T03:47:24;14.90;;;11.40;;
19758;SDS011;10038;42.662;23.278;2023-05-19T03:49:51;15.47;;;11.90;;
19758;SDS011;10038;42.662;23.278;2023-05-19T03:52:18;13.57;;;9.60;;
19758;SDS011;10038;42.662;23.278;2023-05-19T03:54:44;12.83;;;9.90;;
19758;SDS011;10038;42.662;23.278;2023-05-19T03:57:12;14.50;;;9.90;;
19758;SDS011;10038;42.662;23.278;2023-05-19T03:59:39;15.77;;;9.70;;
19758;SDS011;10038;42.662;23.278;2023-05-19T04:02:09;14.40;;;10.27;;
19758;SDS011;10038;42.662;23.278;2023-05-19T04:04:36;13.90;;;9.80;;
19758;SDS011;10038;42.662;23.278;2023-05-19T04:07:03;14.90;;;9.33;;
19758;SDS011;10038;42.662;23.278;2023-05-19T04:09:30;12.40;;;10.00;;
19758;SDS011;10038;42.662;23.278;2023-05-19T04:11:59;13.67;;;9.63;;
19758;SDS011;10038;42.662;23.278;2023-05-19T04:14:26;14.63;;;9.80;;
19758;SDS011;10038;42.662;23.278;2023-05-19T04:16:53;11.10;;;9.20;;
19758;SDS011;10038;42.662;23.278;2023-05-19T04:19:21;11.83;;;9.03;;
19758;SDS011;10038;42.662;23.278;2023-05-19T04:21:48;16.37;;;10.20;;
19758;SDS011;10038;42.662;23.278;2023-05-19T04:24:15;12.80;;;9.10;;
19758;SDS011;10038;42.662;23.278;2023-05-19T04:26:42;12.97;;;10.13;;
19758;SDS011;10038;42.662;23.278;2023-05-19T04:29:11;12.87;;;8.40;;
19758;SDS011;10038;42.662;23.278;2023-05-19T04:31:41;17.77;;;9.43;;
19758;SDS011;10038;42.662;23.278;2023-05-19T04:34:09;14.23;;;10.27;;
19758;SDS011;10038;42.662;23.278;2023-05-19T04:36:37;17.43;;;10.07;;
19758;SDS011;10038;42.662;23.278;2023-05-19T04:39:04;12.37;;;9.90;;
19758;SDS011;10038;42.662;23.278;2023-05-19T04:41:33;13.80;;;9.20;;
19758;SDS011;10038;42.662;23.278;2023-05-19T04:44:00;13.70;;;10.07;;
19758;SDS011;10038;42.662;23.278;2023-05-19T04:46:27;11.80;;;9.53;;
19758;SDS011;10038;42.662;23.278;2023-05-19T04:48:54;12.13;;;9.23;;
19758;SDS011;10038;42.662;23.278;2023-05-19T04:51:22;12.87;;;9.00;;
19758;SDS011;10038;42.662;23.278;2023-05-19T04:53:53;12.77;;;9.00;;
19758;SDS011;10038;42.662;23.278;2023-05-19T04:56:20;15.90;;;9.33;;
19758;SDS011;10038;42.662;23.278;2023-05-19T04:58:47;15.00;;;9.30;;
19758;SDS011;10038;42.662;23.278;2023-05-19T05:01:14;12.43;;;8.93;;
19758;SDS011;10038;42.662;23.278;2023-05-19T05:03:41;14.93;;;8.40;;
19758;SDS011;10038;42.662;23.278;2023-05-19T05:06:08;12.00;;;9.07;;
19758;SDS011;10038;42.662;23.278;2023-05-19T05:08:35;11.70;;;9.00;;
19758;SDS011;10038;42.662;23.278;2023-05-19T05:11:09;13.13;;;8.80;;
19758;SDS011;10038;42.662;23.278;2023-05-19T05:13:37;12.07;;;9.13;;
19758;SDS011;10038;42.662;23.278;2023-05-19T05:16:04;19.37;;;10.63;;
19758;SDS011;10038;42.662;23.278;2023-05-19T05:18:32;12.13;;;9.93;;
19758;SDS011;10038;42.662;23.278;2023-05-19T05:21:00;11.60;;;8.13;;
19758;SDS011;10038;42.662;23.278;2023-05-19T05:23:28;11.00;;;8.40;;
19758;SDS011;10038;42.662;23.278;2023-05-19T05:25:55;11.80;;;9.00;;
19758;SDS011;10038;42.662;23.278;2023-05-19T05:28:24;10.70;;;9.17;;
19758;SDS011;10038;42.662;23.278;2023-05-19T05:30:51;11.47;;;9.43;;
19758;SDS011;10038;42.662;23.278;2023-05-19T05:33:20;13.73;;;9.20;;
19758;SDS011;10038;42.662;23.278;2023-05-19T05:35:48;11.57;;;7.50;;
19758;SDS011;10038;42.662;23.278;2023-05-19T05:38:15;11.53;;;8.17;;
19758;SDS011;10038;42.662;23.278;2023-05-19T05:40:42;11.47;;;7.70;;
19758;SDS011;10038;42.662;23.278;2023-05-19T05:43:09;10.53;;;8.30;;
19758;SDS011;10038;42.662;23.278;2023-05-19T05:45:37;12.17;;;8.53;;
19758;SDS011;10038;42.662;23.278;2023-05-19T05:48:04;11.53;;;8.63;;
19758;SDS011;10038;42.662;23.278;2023-05-19T05:50:32;12.50;;;7.90;;
19758;SDS011;10038;42.662;23.278;2023-05-19T05:53:00;9.20;;;7.20;;
19758;SDS011;10038;42.662;23.278;2023-05-19T05:55:29;8.87;;;6.70;;
19758;SDS011;10038;42.662;23.278;2023-05-19T05:57:56;8.27;;;7.40;;
19758;SDS011;10038;42.662;23.278;2023-05-19T06:00:24;10.73;;;5.90;;
19758;SDS011;10038;42.662;23.278;2023-05-19T06:02:53;9.70;;;7.70;;
19758;SDS011;10038;42.662;23.278;2023-05-19T06:05:21;9.57;;;8.17;;
19758;SDS011;10038;42.662;23.278;2023-05-19T06:07:49;10.03;;;8.20;;
19758;SDS011;10038;42.662;23.278;2023-05-19T06:10:16;8.70;;;6.67;;
19758;SDS011;10038;42.662;23.278;2023-05-19T06:12:42;7.23;;;6.50;;
19758;SDS011;10038;42.662;23.278;2023-05-19T06:15:09;9.07;;;7.07;;
19758;SDS011;10038;42.662;23.278;2023-05-19T06:17:38;9.37;;;6.10;;
19758;SDS011;10038;42.662;23.278;2023-05-19T06:20:07;9.10;;;6.60;;
19758;SDS011;10038;42.662;23.278;2023-05-19T06:22:34;9.50;;;7.73;;
19758;SDS011;10038;42.662;23.278;2023-05-19T06:25:01;8.30;;;6.37;;
19758;SDS011;10038;42.662;23.278;2023-05-19T06:27:28;7.80;;;6.87;;
19758;SDS011;10038;42.662;23.278;2023-05-19T06:29:55;10.43;;;6.63;;
19758;SDS011;10038;42.662;23.278;2023-05-19T06:32:22;7.40;;;6.10;;
19758;SDS011;10038;42.662;23.278;2023-05-19T06:34:49;7.23;;;6.30;;
19758;SDS011;10038;42.662;23.278;2023-05-19T06:37:20;7.60;;;5.70;;
19758;SDS011;10038;42.662;23.278;2023-05-19T06:39:48;9.50;;;6.30;;
19758;SDS011;10038;42.662;23.278;2023-05-19T06:42:16;7.83;;;5.70;;
19758;SDS011;10038;42.662;23.278;2023-05-19T06:44:46;7.87;;;6.23;;
19758;SDS011;10038;42.662;23.278;2023-05-19T06:47:13;7.63;;;6.40;;
19758;SDS011;10038;42.662;23.278;2023-05-19T06:49:41;8.30;;;6.93;;
19758;SDS011;10038;42.662;23.278;2023-05-19T06:52:08;7.27;;;6.57;;
19758;SDS011;10038;42.662;23.278;2023-05-19T06:54:36;9.40;;;6.00;;
19758;SDS011;10038;42.662;23.278;2023-05-19T06:57:03;8.20;;;5.20;;
19758;SDS011;10038;42.662;23.278;2023-05-19T06:59:30;7.90;;;6.07;;
19758;SDS011;10038;42.662;23.278;2023-05-19T07:01:57;7.53;;;5.83;;
19758;SDS011;10038;42.662;23.278;2023-05-19T07:04:26;8.07;;;6.20;;
19758;SDS011;10038;42.662;23.278;2023-05-19T07:06:53;7.37;;;5.00;;
19758;SDS011;10038;42.662;23.278;2023-05-19T07:09:20;5.87;;;5.30;;
19758;SDS011;10038;42.662;23.278;2023-05-19T07:11:48;6.90;;;5.70;;
19758;SDS011;10038;42.662;23.278;2023-05-19T07:14:15;8.43;;;5.73;;
19758;SDS011;10038;42.662;23.278;2023-05-19T07:16:42;8.70;;;4.97;;
19758;SDS011;10038;42.662;23.278;2023-05-19T07:19:09;5.27;;;4.77;;
19758;SDS011;10038;42.662;23.278;2023-05-19T07:21:36;7.33;;;4.90;;
19758;SDS011;10038;42.662;23.278;2023-05-19T07:24:03;7.03;;;5.40;;
19758;SDS011;10038;42.662;23.278;2023-05-19T07:26:30;6.57;;;5.53;;
19758;SDS011;10038;42.662;23.278;2023-05-19T07:28:58;7.03;;;6.23;;
19758;SDS011;10038;42.662;23.278;2023-05-19T07:31:25;7.63;;;5.67;;
19758;SDS011;10038;42.662;23.278;2023-05-19T07:33:54;8.20;;;6.50;;
19758;SDS011;10038;42.662;23.278;2023-05-19T07:36:21;11.20;;;6.37;;
19758;SDS011;10038;42.662;23.278;2023-05-19T07:38:48;9.60;;;5.63;;
19758;SDS011;10038;42.662;23.278;2023-05-19T07:41:15;8.37;;;5.63;;
19758;SDS011;10038;42.662;23.278;2023-05-19T07:43:42;8.50;;;6.03;;
19758;SDS011;10038;42.662;23.278;2023-05-19T07:46:10;9.87;;;6.83;;
19758;SDS011;10038;42.662;23.278;2023-05-19T07:48:37;6.43;;;5.80;;
19758;SDS011;10038;42.662;23.278;2023-05-19T07:51:04;10.33;;;7.63;;
19758;SDS011;10038;42.662;23.278;2023-05-19T07:53:34;7.03;;;6.20;;
19758;SDS011;10038;42.662;23.278;2023-05-19T07:56:01;11.87;;;6.67;;
19758;SDS011;10038;42.662;23.278;2023-05-19T07:58:30;6.53;;;5.83;;
19758;SDS011;10038;42.662;23.278;2023-05-19T08:00:57;8.20;;;7.20;;
19758;SDS011;10038;42.662;23.278;2023-05-19T08:03:25;8.97;;;7.27;;
19758;SDS011;10038;42.662;23.278;2023-05-19T08:05:52;9.30;;;6.87;;
19758;SDS011;10038;42.662;23.278;2023-05-19T08:08:19;7.43;;;6.37;;
19758;SDS011;10038;42.662;23.278;2023-05-19T08:10:46;9.80;;;7.40;;
19758;SDS011;10038;42.662;23.278;2023-05-19T08:13:13;7.63;;;6.93;;
19758;SDS011;10038;42.662;23.278;2023-05-19T08:15:40;7.80;;;7.10;;
19758;SDS011;10038;42.662;23.278;2023-05-19T08:18:07;9.50;;;7.70;;
19758;SDS011;10038;42.662;23.278;2023-05-19T08:20:35;7.80;;;7.00;;
19758;SDS011;10038;42.662;23.278;2023-05-19T08:23:02;7.67;;;6.97;;
19758;SDS011;10038;42.662;23.278;2023-05-19T08:25:29;9.00;;;7.60;;
19758;SDS011;10038;42.662;23.278;2023-05-19T08:27:57;12.87;;;7.70;;
19758;SDS011;10038;42.662;23.278;2023-05-19T08:30:24;12.07;;;7.50;;
19758;SDS011;10038;42.662;23.278;2023-05-19T08:32:51;8.77;;;7.70;;
19758;SDS011;10038;42.662;23.278;2023-05-19T08:35:18;8.80;;;7.87;;
19758;SDS011;10038;42.662;23.278;2023-05-19T08:37:48;10.10;;;8.10;;
19758;SDS011;10038;42.662;23.278;2023-05-19T08:40:16;9.40;;;8.03;;
19758;SDS011;10038;42.662;23.278;2023-05-19T08:42:43;9.60;;;8.13;;
19758;SDS011;10038;42.662;23.278;2023-05-19T08:45:10;7.90;;;7.10;;
19758;SDS011;10038;42.662;23.278;2023-05-19T08:47:38;10.50;;;8.73;;
19758;SDS011;10038;42.662;23.278;2023-05-19T08:50:07;10.20;;;8.10;;
19758;SDS011;10038;42.662;23.278;2023-05-19T08:52:40;9.40;;;7.90;;
19758;SDS011;10038;42.662;23.278;2023-05-19T08:55:17;8.17;;;7.30;;
19758;SDS011;10038;42.662;23.278;2023-05-19T08:57:50;11.20;;;8.43;;
19758;SDS011;10038;42.662;23.278;2023-05-19T09:03:09;10.30;;;9.10;;
19758;SDS011;10038;42.662;23.278;2023-05-19T09:05:40;15.30;;;9.07;;
19758;SDS011;10038;42.662;23.278;2023-05-19T09:08:09;8.97;;;8.07;;
19758;SDS011;10038;42.662;23.278;2023-05-19T09:10:38;9.83;;;8.00;;
19758;SDS011;10038;42.662;23.278;2023-05-19T09:13:05;9.20;;;8.30;;
19758;SDS011;10038;42.662;23.278;2023-05-19T09:15:32;11.60;;;8.20;;
19758;SDS011;10038;42.662;23.278;2023-05-19T09:18:07;10.50;;;8.70;;
19758;SDS011;10038;42.662;23.278;2023-05-19T09:20:38;13.20;;;8.00;;
19758;SDS011;10038;42.662;23.278;2023-05-19T09:23:06;9.60;;;8.67;;
19758;SDS011;10038;42.662;23.278;2023-05-19T09:25:33;13.30;;;8.30;;
19758;SDS011;10038;42.662;23.278;2023-05-19T09:28:02;9.90;;;8.87;;
19758;SDS011;10038;42.662;23.278;2023-05-19T09:30:28;10.47;;;9.20;;
19758;SDS011;10038;42.662;23.278;2023-05-19T09:32:55;14.20;;;9.47;;
19758;SDS011;10038;42.662;23.278;2023-05-19T09:35:23;13.37;;;8.60;;
19758;SDS011;10038;42.662;23.278;2023-05-19T09:37:50;10.30;;;8.90;;
19758;SDS011;10038;42.662;23.278;2023-05-19T09:40:17;12.43;;;10.07;;
19758;SDS011;10038;42.662;23.278;2023-05-19T09:42:45;11.00;;;8.50;;
19758;SDS011;10038;42.662;23.278;2023-05-19T09:45:14;11.30;;;9.17;;
19758;SDS011;10038;42.662;23.278;2023-05-19T09:47:41;11.80;;;9.33;;
19758;SDS011;10038;42.662;23.278;2023-05-19T09:50:08;13.67;;;9.40;;
19758;SDS011;10038;42.662;23.278;2023-05-19T09:52:36;13.47;;;9.50;;
19758;SDS011;10038;42.662;23.278;2023-05-19T09:55:05;10.30;;;8.70;;
19758;SDS011;10038;42.662;23.278;2023-05-19T09:57:35;10.47;;;7.97;;
19758;SDS011;10038;42.662;23.278;2023-05-19T10:00:03;13.20;;;9.07;;
19758;SDS011;10038;42.662;23.278;2023-05-19T10:02:40;14.33;;;9.37;;
19758;SDS011;10038;42.662;23.278;2023-05-19T10:05:12;10.40;;;9.03;;
19758;SDS011;10038;42.662;23.278;2023-05-19T10:07:41;9.77;;;8.83;;
19758;SDS011;10038;42.662;23.278;2023-05-19T10:10:12;12.40;;;9.20;;
19758;SDS011;10038;42.662;23.278;2023-05-19T10:12:40;13.27;;;9.17;;
19758;SDS011;10038;42.662;23.278;2023-05-19T10:15:08;10.67;;;9.27;;
19758;SDS011;10038;42.662;23.278;2023-05-19T10:17:36;9.77;;;8.77;;
19758;SDS011;10038;42.662;23.278;2023-05-19T10:20:07;15.33;;;8.93;;
19758;SDS011;10038;42.662;23.278;2023-05-19T10:22:36;11.60;;;9.23;;
19758;SDS011;10038;42.662;23.278;2023-05-19T10:25:04;9.77;;;8.87;;
19758;SDS011;10038;42.662;23.278;2023-05-19T10:27:33;10.90;;;8.43;;
19758;SDS011;10038;42.662;23.278;2023-05-19T10:30:05;9.57;;;8.67;;
19758;SDS011;10038;42.662;23.278;2023-05-19T10:32:34;12.97;;;9.07;;
19758;SDS011;10038;42.662;23.278;2023-05-19T10:38:17;14.73;;;9.90;;
19758;SDS011;10038;42.662;23.278;2023-05-19T10:40:54;13.60;;;9.80;;
19758;SDS011;10038;42.662;23.278;2023-05-19T10:43:29;10.40;;;9.40;;
19758;SDS011;10038;42.662;23.278;2023-05-19T10:46:06;14.20;;;9.17;;
19758;SDS011;10038;42.662;23.278;2023-05-19T10:48:34;10.77;;;7.83;;
19758;SDS011;10038;42.662;23.278;2023-05-19T10:51:01;11.43;;;8.17;;
19758;SDS011;10038;42.662;23.278;2023-05-19T10:53:32;12.13;;;8.60;;
19758;SDS011;10038;42.662;23.278;2023-05-19T10:56:01;10.57;;;8.87;;
19758;SDS011;10038;42.662;23.278;2023-05-19T10:58:38;8.60;;;7.67;;
19758;SDS011;10038;42.662;23.278;2023-05-19T11:01:14;11.80;;;8.43;;
19758;SDS011;10038;42.662;23.278;2023-05-19T11:03:45;9.47;;;8.47;;
19758;SDS011;10038;42.662;23.278;2023-05-19T11:06:17;9.30;;;8.23;;
19758;SDS011;10038;42.662;23.278;2023-05-19T11:08:56;10.77;;;9.27;;
19758;SDS011;10038;42.662;23.278;2023-05-19T11:11:41;10.90;;;8.90;;
19758;SDS011;10038;42.662;23.278;2023-05-19T11:14:10;12.57;;;7.90;;
19758;SDS011;10038;42.662;23.278;2023-05-19T11:16:38;13.17;;;7.80;;
19758;SDS011;10038;42.662;23.278;2023-05-19T11:19:07;9.10;;;8.20;;
19758;SDS011;10038;42.662;23.278;2023-05-19T11:21:41;10.47;;;8.43;;
19758;SDS011;10038;42.662;23.278;2023-05-19T11:24:10;10.43;;;8.00;;
19758;SDS011;10038;42.662;23.278;2023-05-19T11:29:43;10.10;;;8.73;;
19758;SDS011;10038;42.662;23.278;2023-05-19T11:32:09;10.40;;;9.10;;
19758;SDS011;10038;42.662;23.278;2023-05-19T11:34:36;10.83;;;8.90;;
19758;SDS011;10038;42.662;23.278;2023-05-19T11:37:04;12.83;;;9.17;;
19758;SDS011;10038;42.662;23.278;2023-05-19T11:39:33;13.13;;;9.70;;
19758;SDS011;10038;42.662;23.278;2023-05-19T11:42:00;9.00;;;8.10;;
19758;SDS011;10038;42.662;23.278;2023-05-19T11:44:27;10.83;;;8.93;;
19758;SDS011;10038;42.662;23.278;2023-05-19T11:46:54;9.67;;;8.67;;
19758;SDS011;10038;42.662;23.278;2023-05-19T11:49:21;10.10;;;9.20;;
19758;SDS011;10038;42.662;23.278;2023-05-19T11:51:47;11.17;;;8.30;;
19758;SDS011;10038;42.662;23.278;2023-05-19T11:54:14;9.53;;;8.37;;
19758;SDS011;10038;42.662;23.278;2023-05-19T11:56:43;10.00;;;8.23;;
19758;SDS011;10038;42.662;23.278;2023-05-19T11:59:10;12.30;;;8.37;;
19758;SDS011;10038;42.662;23.278;2023-05-19T12:01:37;10.23;;;8.10;;
19758;SDS011;10038;42.662;23.278;2023-05-19T12:04:06;9.73;;;7.90;;
19758;SDS011;10038;42.662;23.278;2023-05-19T12:06:33;11.93;;;9.80;;
19758;SDS011;10038;42.662;23.278;2023-05-19T12:09:00;15.03;;;9.37;;
19758;SDS011;10038;42.662;23.278;2023-05-19T12:11:27;13.93;;;7.83;;
19758;SDS011;10038;42.662;23.278;2023-05-19T12:13:58;10.47;;;8.30;;
19758;SDS011;10038;42.662;23.278;2023-05-19T12:16:33;10.03;;;7.90;;
19758;SDS011;10038;42.662;23.278;2023-05-19T12:19:00;13.50;;;8.90;;
19758;SDS011;10038;42.662;23.278;2023-05-19T12:21:27;9.77;;;8.77;;
19758;SDS011;10038;42.662;23.278;2023-05-19T12:23:54;9.67;;;7.03;;
19758;SDS011;10038;42.662;23.278;2023-05-19T12:26:21;12.10;;;7.83;;
19758;SDS011;10038;42.662;23.278;2023-05-19T12:28:48;11.30;;;7.90;;
19758;SDS011;10038;42.662;23.278;2023-05-19T12:31:18;10.70;;;8.70;;
19758;SDS011;10038;42.662;23.278;2023-05-19T12:33:47;11.53;;;8.97;;
19758;SDS011;10038;42.662;23.278;2023-05-19T12:36:15;13.50;;;9.27;;
19758;SDS011;10038;42.662;23.278;2023-05-19T12:38:42;11.50;;;8.27;;
19758;SDS011;10038;42.662;23.278;2023-05-19T12:41:11;10.83;;;9.20;;
19758;SDS011;10038;42.662;23.278;2023-05-19T12:43:39;12.33;;;8.90;;
19758;SDS011;10038;42.662;23.278;2023-05-19T12:46:09;10.77;;;8.87;;
19758;SDS011;10038;42.662;23.278;2023-05-19T12:48:40;8.90;;;6.60;;
19758;SDS011;10038;42.662;23.278;2023-05-19T12:51:08;9.10;;;6.57;;
19758;SDS011;10038;42.662;23.278;2023-05-19T12:53:35;8.57;;;7.17;;
19758;SDS011;10038;42.662;23.278;2023-05-19T12:56:09;12.87;;;6.70;;
19758;SDS011;10038;42.662;23.278;2023-05-19T12:58:37;11.30;;;7.27;;
19758;SDS011;10038;42.662;23.278;2023-05-19T13:01:05;8.20;;;6.80;;
19758;SDS011;10038;42.662;23.278;2023-05-19T13:03:39;10.37;;;7.10;;
19758;SDS011;10038;42.662;23.278;2023-05-19T13:06:07;7.13;;;5.30;;
19758;SDS011;10038;42.662;23.278;2023-05-19T13:08:35;7.90;;;6.63;;
19758;SDS011;10038;42.662;23.278;2023-05-19T13:11:03;7.10;;;5.63;;
19758;SDS011;10038;42.662;23.278;2023-05-19T13:13:30;7.43;;;5.50;;
19758;SDS011;10038;42.662;23.278;2023-05-19T13:15:57;9.17;;;5.87;;
19758;SDS011;10038;42.662;23.278;2023-05-19T13:18:24;8.00;;;5.70;;
19758;SDS011;10038;42.662;23.278;2023-05-19T13:20:53;8.40;;;6.50;;
19758;SDS011;10038;42.662;23.278;2023-05-19T13:23:20;6.20;;;5.53;;
19758;SDS011;10038;42.662;23.278;2023-05-19T13:25:48;7.83;;;6.07;;
19758;SDS011;10038;42.662;23.278;2023-05-19T13:28:15;9.87;;;6.27;;
19758;SDS011;10038;42.662;23.278;2023-05-19T13:30:43;8.77;;;5.73;;
19758;SDS011;10038;42.662;23.278;2023-05-19T13:33:10;7.40;;;6.07;;
19758;SDS011;10038;42.662;23.278;2023-05-19T13:35:37;8.17;;;6.17;;
19758;SDS011;10038;42.662;23.278;2023-05-19T13:38:07;7.00;;;6.20;;
19758;SDS011;10038;42.662;23.278;2023-05-19T13:40:34;9.30;;;6.80;;
19758;SDS011;10038;42.662;23.278;2023-05-19T13:43:01;9.80;;;7.37;;
19758;SDS011;10038;42.662;23.278;2023-05-19T13:45:29;8.40;;;6.17;;
19758;SDS011;10038;42.662;23.278;2023-05-19T13:47:56;10.13;;;6.90;;
19758;SDS011;10038;42.662;23.278;2023-05-19T13:50:23;13.83;;;7.80;;
19758;SDS011;10038;42.662;23.278;2023-05-19T13:52:50;9.07;;;6.53;;
19758;SDS011;10038;42.662;23.278;2023-05-19T13:55:19;9.13;;;6.83;;
19758;SDS011;10038;42.662;23.278;2023-05-19T13:57:47;10.20;;;7.17;;
19758;SDS011;10038;42.662;23.278;2023-05-19T14:00:15;10.80;;;7.43;;
19758;SDS011;10038;42.662;23.278;2023-05-19T14:02:43;11.17;;;7.57;;
19758;SDS011;10038;42.662;23.278;2023-05-19T14:05:10;9.73;;;8.13;;
19758;SDS011;10038;42.662;23.278;2023-05-19T14:07:37;16.43;;;9.00;;
19758;SDS011;10038;42.662;23.278;2023-05-19T14:10:07;23.63;;;10.53;;
19758;SDS011;10038;42.662;23.278;2023-05-19T14:12:36;11.70;;;7.50;;
19758;SDS011;10038;42.662;23.278;2023-05-19T14:15:03;9.77;;;8.03;;
19758;SDS011;10038;42.662;23.278;2023-05-19T14:17:31;11.47;;;7.53;;
19758;SDS011;10038;42.662;23.278;2023-05-19T14:19:58;11.37;;;8.93;;
19758;SDS011;10038;42.662;23.278;2023-05-19T14:22:25;12.13;;;9.40;;
19758;SDS011;10038;42.662;23.278;2023-05-19T14:24:52;13.23;;;7.73;;
19758;SDS011;10038;42.662;23.278;2023-05-19T14:27:19;12.47;;;7.77;;
19758;SDS011;10038;42.662;23.278;2023-05-19T14:29:47;11.53;;;7.80;;
19758;SDS011;10038;42.662;23.278;2023-05-19T14:32:14;12.13;;;7.67;;
19758;SDS011;10038;42.662;23.278;2023-05-19T14:34:41;10.10;;;7.40;;
19758;SDS011;10038;42.662;23.278;2023-05-19T14:37:08;9.63;;;6.60;;
19758;SDS011;10038;42.662;23.278;2023-05-19T14:39:35;12.20;;;9.03;;
19758;SDS011;10038;42.662;23.278;2023-05-19T14:42:02;15.43;;;7.73;;
19758;SDS011;10038;42.662;23.278;2023-05-19T14:44:29;13.03;;;7.90;;